Time;durP1;ratioP1;P1;durP2;ratioP2;P2;SDS_P1;SDS_P2;PMS_P1;PMS_P2;Temp;Humidity;BMP_temperature;BMP_pressure;BME280_temperature;BME280_humidity;BME280_pressure;Samples;Min_cycle;Max_cycle;Signal;HPM_P1;HPM_P2
2021/07/31 00:01:15;;;;;;;4.53;1.90;;;;;;;15.79;73.47;100422.53;10458939;28;20531;-64
2021/07/31 00:06:18;;;;;;;5.72;2.30;;;;;;;15.81;73.96;100411.84;10458466;28;20440;-65
2021/07/31 00:11:20;;;;;;;5.97;2.30;;;;;;;15.77;74.36;100406.00;10458371;28;20057;-65
2021/07/31 00:16:22;;;;;;;6.88;2.20;;;;;;;15.87;74.11;100400.72;10458238;28;20456;-65
2021/07/31 00:21:25;;;;;;;5.05;2.13;;;;;;;15.67;74.62;100402.41;10458293;28;20053;-65
2021/07/31 00:26:27;;;;;;;9.23;2.30;;;;;;;15.78;74.53;100402.38;10458028;28;20509;-64
2021/07/31 00:31:29;;;;;;;8.38;2.80;;;;;;;15.65;75.03;100405.22;10456948;28;20416;-66
2021/07/31 00:36:32;;;;;;;5.85;2.30;;;;;;;15.76;74.94;100401.66;10457627;28;20440;-66
2021/07/31 00:41:34;;;;;;;6.72;2.75;;;;;;;15.57;76.81;100399.75;10457546;28;20412;-64
2021/07/31 00:46:36;;;;;;;5.60;2.28;;;;;;;15.67;76.19;100386.56;10457328;28;20053;-65
2021/07/31 00:51:39;;;;;;;7.18;3.15;;;;;;;15.65;76.13;100399.94;10457183;28;20049;-66
2021/07/31 00:56:43;;;;;;;10.07;2.65;;;;;;;15.93;74.42;100392.28;10456233;28;20056;-64
2021/07/31 01:01:45;;;;;;;4.53;2.53;;;;;;;15.85;74.97;100389.47;10455836;28;20060;-65
2021/07/31 01:06:48;;;;;;;7.43;2.90;;;;;;;15.95;75.18;100385.06;10456882;28;20128;-65
2021/07/31 01:11:50;;;;;;;7.75;2.40;;;;;;;16.09;74.61;100391.81;10456560;28;20056;-64
2021/07/31 01:16:52;;;;;;;9.73;3.28;;;;;;;15.88;75.32;100403.25;10456543;28;20052;-65
2021/07/31 01:21:55;;;;;;;6.68;3.13;;;;;;;16.03;75.44;100389.69;10455406;28;20045;-64
2021/07/31 01:26:57;;;;;;;9.90;3.17;;;;;;;15.96;75.43;100399.97;10456318;28;20051;-66
2021/07/31 01:32:00;;;;;;;13.80;3.65;;;;;;;15.96;74.86;100395.50;10456438;28;20048;-65
2021/07/31 01:37:02;;;;;;;5.45;2.42;;;;;;;16.01;74.51;100391.66;10456280;28;20052;-66
2021/07/31 01:42:09;;;;;;;9.95;3.30;;;;;;;15.86;75.61;100384.06;10460579;28;20052;-64
2021/07/31 01:47:11;;;;;;;8.30;3.08;;;;;;;16.02;74.60;100385.38;10463034;28;20386;-66
2021/07/31 01:52:14;;;;;;;10.30;3.08;;;;;;;15.82;76.37;100392.38;10463816;28;20550;-66
2021/07/31 01:57:16;;;;;;;11.32;4.20;;;;;;;15.98;75.25;100390.91;10463699;28;20045;-65
2021/07/31 02:02:18;;;;;;;9.57;3.30;;;;;;;15.97;74.77;100386.63;10463692;28;20515;-66
2021/07/31 02:07:21;;;;;;;9.25;3.35;;;;;;;15.89;75.64;100373.25;10463233;28;20041;-66
2021/07/31 02:12:23;;;;;;;5.57;3.22;;;;;;;15.81;75.73;100374.88;10463372;28;20049;-65
2021/07/31 02:17:25;;;;;;;6.45;3.25;;;;;;;15.98;74.34;100367.16;10462872;28;20485;-66
2021/07/31 02:22:28;;;;;;;8.68;3.42;;;;;;;15.91;75.23;100368.66;10463266;28;20063;-66
2021/07/31 02:27:30;;;;;;;10.68;3.42;;;;;;;15.79;75.51;100369.75;10462687;28;20115;-65
2021/07/31 02:32:33;;;;;;;9.50;3.40;;;;;;;15.93;75.09;100379.09;10462436;28;20490;-66
2021/07/31 02:37:36;;;;;;;13.40;3.13;;;;;;;16.14;74.03;100371.94;10462207;28;20048;-66
2021/07/31 02:42:39;;;;;;;9.20;3.80;;;;;;;15.92;74.29;100374.78;10462330;28;20114;-65
2021/07/31 02:47:41;;;;;;;13.18;4.32;;;;;;;15.84;75.39;100364.06;10461701;28;20049;-67
2021/07/31 02:52:45;;;;;;;7.07;3.17;;;;;;;15.86;74.69;100356.84;10461746;28;20045;-65
2021/07/31 02:57:47;;;;;;;11.07;3.40;;;;;;;15.65;76.50;100355.06;10461543;28;20044;-67
2021/07/31 03:02:49;;;;;;;10.95;3.45;;;;;;;15.71;75.83;100358.97;10461463;28;20439;-66
2021/07/31 03:07:52;;;;;;;7.93;3.75;;;;;;;15.90;75.17;100355.59;10461502;28;20045;-67
2021/07/31 03:12:54;;;;;;;9.43;3.80;;;;;;;15.78;75.41;100352.22;10459854;28;20081;-66
2021/07/31 03:17:57;;;;;;;9.07;3.15;;;;;;;15.77;76.11;100350.56;10460390;28;20503;-67
2021/07/31 03:22:59;;;;;;;9.02;3.90;;;;;;;15.80;75.98;100350.28;10459686;28;20048;-68
2021/07/31 03:28:01;;;;;;;8.85;3.50;;;;;;;15.85;75.36;100357.81;10460141;28;20051;-65
2021/07/31 03:33:03;;;;;;;7.85;4.35;;;;;;;15.62;76.86;100352.69;10460496;28;20045;-66
2021/07/31 03:38:06;;;;;;;8.80;5.07;;;;;;;15.74;76.87;100348.97;10460002;28;20055;-68
2021/07/31 03:43:09;;;;;;;7.93;3.90;;;;;;;15.61;78.23;100349.19;10459870;28;20056;-67
2021/07/31 03:48:11;;;;;;;14.02;4.50;;;;;;;15.45;78.56;100343.56;10459400;28;20127;-66
2021/07/31 03:53:13;;;;;;;13.30;5.45;;;;;;;15.29;79.85;100348.47;10459456;28;20068;-67
2021/07/31 03:58:16;;;;;;;13.55;4.97;;;;;;;15.37;79.15;100353.94;10459203;28;20045;-66
2021/07/31 04:03:18;;;;;;;10.68;3.88;;;;;;;15.33;80.37;100374.47;10457088;28;20087;-66
2021/07/31 04:08:21;;;;;;;11.48;4.20;;;;;;;15.06;81.51;100390.78;10458930;28;20047;-65
2021/07/31 04:13:23;;;;;;;15.00;4.68;;;;;;;14.97;82.27;100397.66;10458638;28;20052;-66
2021/07/31 04:18:26;;;;;;;11.30;5.55;;;;;;;15.01;82.49;100393.81;10459016;28;20040;-66
2021/07/31 04:23:28;;;;;;;11.35;5.50;;;;;;;15.11;82.17;100404.41;10458525;28;20048;-66
2021/07/31 04:28:30;;;;;;;8.93;5.35;;;;;;;15.13;82.37;100410.41;10457623;28;20401;-65
2021/07/31 04:33:33;;;;;;;9.57;5.68;;;;;;;14.95;82.91;100404.03;10458036;28;20045;-65
2021/07/31 04:38:36;;;;;;;12.43;5.93;;;;;;;15.05;83.16;100413.66;10457484;28;20045;-64
2021/07/31 04:43:38;;;;;;;9.82;5.88;;;;;;;14.93;83.39;100427.00;10457630;28;20053;-65
2021/07/31 04:48:40;;;;;;;14.77;7.90;;;;;;;14.85;83.98;100432.91;10457240;28;20051;-67
2021/07/31 04:53:43;;;;;;;12.23;6.30;;;;;;;14.86;84.08;100429.31;10456288;28;20071;-64
2021/07/31 04:58:45;;;;;;;12.25;6.63;;;;;;;15.07;83.74;100432.00;10455699;28;20045;-67
2021/07/31 05:03:48;;;;;;;7.03;5.20;;;;;;;15.05;81.81;100440.03;10456754;28;20049;-65
2021/07/31 05:08:51;;;;;;;9.98;5.50;;;;;;;14.78;84.39;100440.47;10456525;28;20488;-65
2021/07/31 05:13:53;;;;;;;9.80;5.47;;;;;;;14.88;84.90;100450.25;10456623;28;20045;-66
2021/07/31 05:18:55;;;;;;;9.15;6.28;;;;;;;14.90;84.70;100454.47;10456174;28;20099;-67
2021/07/31 05:23:58;;;;;;;7.10;6.40;;;;;;;14.84;84.41;100458.44;10456530;28;20055;-65
2021/07/31 05:29:00;;;;;;;12.40;7.00;;;;;;;15.08;83.82;100457.41;10456815;28;20045;-64
2021/07/31 05:34:02;;;;;;;9.48;8.43;;;;;;;14.93;84.24;100471.81;10456085;28;20048;-64
2021/07/31 05:39:05;;;;;;;9.00;6.75;;;;;;;15.44;82.32;100465.06;10454640;28;20556;-64
2021/07/31 05:44:07;;;;;;;12.32;9.00;;;;;;;15.35;82.96;100466.66;10456488;28;20049;-65
2021/07/31 05:49:09;;;;;;;9.85;7.70;;;;;;;15.51;82.61;100466.22;10456016;28;20044;-64
2021/07/31 05:54:12;;;;;;;11.45;8.18;;;;;;;15.26;83.56;100467.41;10456068;28;20128;-64
2021/07/31 05:59:14;;;;;;;11.32;8.10;;;;;;;15.16;83.97;100484.00;10455645;28;20488;-63
2021/07/31 06:04:17;;;;;;;12.57;8.57;;;;;;;15.44;83.77;100473.78;10455539;28;20381;-66
2021/07/31 06:09:19;;;;;;;12.15;6.88;;;;;;;15.49;83.49;100476.88;10455791;28;20049;-64
2021/07/31 06:14:21;;;;;;;12.27;7.93;;;;;;;15.42;83.22;100476.56;10455507;28;20049;-63
2021/07/31 06:19:24;;;;;;;10.70;6.70;;;;;;;15.40;83.24;100485.56;10455647;28;20045;-67
2021/07/31 06:24:26;;;;;;;10.77;7.75;;;;;;;15.47;83.24;100485.91;10455262;28;20052;-64
2021/07/31 06:29:29;;;;;;;8.82;7.28;;;;;;;15.24;84.50;100483.34;10460028;28;20493;-65
2021/07/31 06:34:31;;;;;;;11.18;9.27;;;;;;;15.71;82.68;100477.72;10462396;28;20056;-65
2021/07/31 06:39:33;;;;;;;11.45;8.18;;;;;;;16.01;81.88;100476.97;10462370;28;20053;-67
2021/07/31 06:44:36;;;;;;;10.80;7.80;;;;;;;16.04;81.40;100489.06;10462241;28;20053;-65
2021/07/31 06:49:38;;;;;;;9.25;7.95;;;;;;;16.15;80.79;100503.03;10461995;28;20045;-64
2021/07/31 06:54:40;;;;;;;10.40;6.90;;;;;;;16.27;81.01;100502.94;10462073;28;20049;-65
2021/07/31 06:59:43;;;;;;;10.48;7.95;;;;;;;16.08;80.66;100501.88;10461407;28;20048;-64
2021/07/31 07:04:45;;;;;;;9.40;7.28;;;;;;;16.31;79.87;100507.84;10461492;28;20076;-66
2021/07/31 07:09:47;;;;;;;9.27;7.55;;;;;;;16.48;78.94;100518.75;10461024;28;20063;-64
2021/07/31 07:14:50;;;;;;;10.02;8.73;;;;;;;16.50;80.30;100522.91;10460639;28;20497;-66
2021/07/31 07:19:52;;;;;;;8.13;6.60;;;;;;;16.94;77.22;100524.47;10460867;28;20049;-64
2021/07/31 07:24:55;;;;;;;7.78;6.97;;;;;;;16.67;77.68;100533.84;10460626;28;20072;-64
2021/07/31 07:29:57;;;;;;;10.30;7.60;;;;;;;16.81;77.89;100529.97;10460472;28;20060;-64
2021/07/31 07:34:59;;;;;;;8.50;6.60;;;;;;;16.58;79.50;100548.69;10460455;28;20056;-65
2021/07/31 07:40:02;;;;;;;10.48;7.05;;;;;;;16.35;79.44;100545.38;10459550;28;20053;-64
2021/07/31 07:45:06;;;;;;;8.18;7.30;;;;;;;16.10;79.77;100552.75;10459569;28;20387;-64
2021/07/31 07:50:09;;;;;;;11.77;8.07;;;;;;;16.46;80.17;100553.22;10459570;28;20045;-64
2021/07/31 07:55:14;;;;;;;11.57;8.63;;;;;;;16.40;79.25;100553.75;10459970;28;20044;-65
2021/07/31 08:00:17;;;;;;;11.57;7.95;;;;;;;16.29;79.05;100569.66;10458933;28;20045;-65
2021/07/31 08:05:19;;;;;;;8.13;7.00;;;;;;;16.24;79.32;100561.31;10459529;28;20060;-66
2021/07/31 08:10:21;;;;;;;9.18;7.43;;;;;;;16.66;78.07;100572.66;10458985;28;20056;-64
2021/07/31 08:15:24;;;;;;;10.15;7.00;;;;;;;16.31;78.46;100573.03;10458543;28;20052;-64
2021/07/31 08:20:26;;;;;;;7.32;5.90;;;;;;;17.48;75.77;100575.22;10458482;28;20047;-66
2021/07/31 08:25:28;;;;;;;12.38;7.15;;;;;;;17.38;75.33;100573.44;10458228;28;20053;-65
2021/07/31 08:30:31;;;;;;;8.00;5.72;;;;;;;16.85;75.74;100579.03;10458135;28;20049;-65
2021/07/31 08:35:33;;;;;;;7.95;5.07;;;;;;;17.55;74.89;100571.06;10457608;28;20405;-65
2021/07/31 08:40:35;;;;;;;7.45;5.60;;;;;;;17.80;74.15;100572.31;10457522;28;20051;-65
2021/07/31 08:45:39;;;;;;;11.07;5.78;;;;;;;17.49;74.26;100572.44;10456687;28;20059;-66
2021/07/31 08:50:42;;;;;;;10.02;5.32;;;;;;;18.08;73.21;100577.75;10456616;28;20049;-64
2021/07/31 08:55:46;;;;;;;5.38;4.85;;;;;;;18.46;71.63;100568.88;10455735;28;20057;-66
2021/07/31 09:00:49;;;;;;;10.07;5.60;;;;;;;18.50;71.45;100580.84;10456693;28;20500;-66
2021/07/31 09:05:52;;;;;;;8.68;6.40;;;;;;;18.29;71.84;100588.16;10457304;28;20053;-67
2021/07/31 09:10:55;;;;;;;6.78;5.43;;;;;;;18.60;71.17;100572.84;10456413;28;20049;-66
2021/07/31 09:15:57;;;;;;;6.00;5.13;;;;;;;18.90;69.54;100582.38;10456212;28;20045;-67
2021/07/31 09:21:12;;;;;;;9.32;5.20;;;;;;;18.91;70.21;100581.41;10455417;28;20053;-66
2021/07/31 09:26:26;;;;;;;5.55;3.65;;;;;;;20.22;65.52;100581.81;10457437;28;20052;-65
2021/07/31 09:31:29;;;;;;;4.85;4.15;;;;;;;20.13;64.43;100589.88;10457522;28;20052;-66
2021/07/31 09:36:40;;;;;;;3.85;3.38;;;;;;;19.55;67.26;100601.81;10455014;28;20087;-66
2021/07/31 09:41:43;;;;;;;4.68;3.08;;;;;;;19.01;67.13;100609.69;10455850;28;20055;-65
2021/07/31 09:46:54;;;;;;;7.10;3.45;;;;;;;18.11;72.50;100623.34;10456096;28;20484;-63
2021/07/31 09:51:58;;;;;;;7.05;4.70;;;;;;;18.04;74.47;100624.88;10456292;28;20132;-64
2021/07/31 09:57:00;;;;;;;4.38;3.92;;;;;;;17.36;77.30;100633.56;10455806;28;20051;-64
2021/07/31 10:02:04;;;;;;;5.22;4.70;;;;;;;17.20;77.10;100643.84;10457343;28;20497;-67
2021/07/31 10:07:06;;;;;;;8.20;5.07;;;;;;;17.12;79.23;100644.53;10463782;28;20045;-64
2021/07/31 10:12:14;;;;;;;7.45;4.80;;;;;;;17.29;77.91;100650.16;10462048;28;20425;-64
2021/07/31 10:17:16;;;;;;;5.55;4.15;;;;;;;17.18;79.24;100657.22;10463261;28;20045;-64
2021/07/31 10:22:19;;;;;;;5.53;5.03;;;;;;;17.17;78.44;100649.41;10463143;28;20076;-65
2021/07/31 10:27:23;;;;;;;6.18;5.25;;;;;;;17.11;80.44;100663.16;10461781;28;20396;-66
2021/07/31 10:32:38;;;;;;;8.38;6.25;;;;;;;17.39;80.08;100665.06;10462699;28;20056;-65
2021/07/31 10:37:40;;;;;;;5.53;4.78;;;;;;;19.48;75.61;100657.34;10462162;28;20484;-65
2021/07/31 10:42:52;;;;;;;5.60;3.67;;;;;;;19.12;74.27;100667.88;10461858;28;20052;-64
2021/07/31 10:48:23;;;;;;;3.10;2.90;;;;;;;20.29;73.11;100663.56;10462281;28;20080;-65
2021/07/31 10:53:46;;;;;;;3.85;2.80;;;;;;;21.00;68.23;100653.72;10461733;28;20045;-67
2021/07/31 10:59:14;;;;;;;2.65;2.45;;;;;;;19.44;71.01;100672.72;10460859;28;20049;-65
2021/07/31 11:04:54;;;;;;;2.53;2.33;;;;;;;19.49;72.50;100672.28;10462242;28;20060;-67
2021/07/31 11:10:39;;;;;;;4.65;2.60;;;;;;;18.50;73.34;100694.00;10461171;28;20055;-65
2021/07/31 11:15:59;;;;;;;5.45;3.03;;;;;;;18.18;73.64;100690.69;10460256;28;20484;-66
2021/07/31 11:21:11;;;;;;;3.90;2.25;;;;;;;18.55;72.57;100683.81;10460948;28;20041;-66
2021/07/31 11:26:14;;;;;;;;;;;;;;;19.11;71.89;100688.28;10460913;28;20049;-67
2021/07/31 11:31:18;;;;;;;2.67;2.10;;;;;;;20.59;68.00;100688.88;10459558;28;19928;-64
2021/07/31 11:36:20;;;;;;;4.20;2.00;;;;;;;19.76;69.75;100697.16;10460487;28;20041;-66
2021/07/31 11:41:23;;;;;;;5.38;1.95;;;;;;;19.68;68.29;100708.50;10459060;28;20063;-66
2021/07/31 11:46:53;;;;;;;2.75;1.70;;;;;;;21.32;67.18;100701.78;10459654;28;20417;-64
2021/07/31 11:51:58;;;;;;;2.05;1.90;;;;;;;22.59;62.31;100698.97;10459588;28;20057;-65
2021/07/31 11:57:02;;;;;;;2.85;1.95;;;;;;;21.10;64.31;100705.84;10459522;28;20071;-68
2021/07/31 12:02:04;;;;;;;4.72;2.40;;;;;;;20.09;68.83;100714.28;10459442;28;20052;-66
2021/07/31 12:07:14;;;;;;;4.22;2.55;;;;;;;19.64;72.36;100721.25;10459691;28;20053;-64
2021/07/31 12:12:32;;;;;;;4.38;2.95;;;;;;;19.50;73.54;100719.06;10458650;28;20067;-63
2021/07/31 12:17:34;;;;;;;3.28;2.97;;;;;;;20.44;70.09;100720.50;10458610;28;20055;-63
2021/07/31 12:22:51;;;;;;;4.18;3.00;;;;;;;19.02;72.09;100733.41;10459749;28;20129;-63
2021/07/31 12:28:01;;;;;;;3.97;3.58;;;;;;;19.20;75.30;100734.31;10457131;28;20485;-64
2021/07/31 12:33:07;;;;;;;6.82;3.70;;;;;;;19.75;72.35;100740.63;10458140;28;20053;-66
2021/07/31 12:38:13;;;;;;;5.80;2.83;;;;;;;19.44;73.48;100732.97;10457649;28;20049;-64
2021/07/31 12:43:19;;;;;;;4.35;3.40;;;;;;;19.40;72.24;100726.25;10457739;28;20059;-63
2021/07/31 12:48:21;;;;;;;7.38;3.63;;;;;;;19.20;74.05;100744.09;10456794;28;20049;-65
2021/07/31 12:53:25;;;;;;;4.30;3.75;;;;;;;19.66;73.62;100742.34;10457321;28;20045;-64
2021/07/31 12:58:27;;;;;;;4.30;3.30;;;;;;;19.16;73.78;100743.53;10457006;28;20052;-63
2021/07/31 13:03:29;;;;;;;3.55;3.03;;;;;;;18.52;76.08;100764.44;10456925;28;20049;-65
2021/07/31 13:08:32;;;;;;;2.90;2.63;;;;;;;18.46;77.07;100762.38;10457048;28;20049;-64
2021/07/31 13:13:35;;;;;;;3.55;2.80;;;;;;;18.46;77.87;100769.47;10457177;28;20045;-65
2021/07/31 13:18:38;;;;;;;3.75;3.30;;;;;;;18.72;78.16;100765.25;10456794;28;20045;-63
2021/07/31 13:23:40;;;;;;;4.35;3.50;;;;;;;19.03;78.68;100765.13;10456579;28;20068;-63
2021/07/31 13:28:43;;;;;;;7.25;3.17;;;;;;;18.50;76.20;100769.06;10456884;28;20041;-65
2021/07/31 13:33:45;;;;;;;2.95;2.75;;;;;;;19.73;76.33;100763.84;10456367;28;20045;-63
2021/07/31 13:38:49;;;;;;;4.28;3.20;;;;;;;19.98;75.91;100775.59;10462393;28;20392;-63
2021/07/31 13:43:52;;;;;;;4.53;3.17;;;;;;;19.41;75.59;100771.25;10464426;28;20511;-63
2021/07/31 13:48:54;;;;;;;7.85;3.50;;;;;;;19.57;73.79;100778.59;10464294;28;20539;-65
2021/07/31 13:53:57;;;;;;;4.90;3.92;;;;;;;19.42;76.16;100782.72;10464295;28;20049;-65
2021/07/31 13:59:04;;;;;;;5.18;3.38;;;;;;;22.16;69.26;100781.00;10463963;28;20489;-64
2021/07/31 14:04:08;;;;;;;2.80;2.53;;;;;;;23.11;61.54;100778.66;10464290;28;20051;-64
2021/07/31 14:09:10;;;;;;;6.80;3.25;;;;;;;23.07;62.33;100779.19;10463524;28;20053;-64
2021/07/31 14:14:12;;;;;;;8.30;3.30;;;;;;;22.82;63.67;100781.84;10463871;28;20056;-65
2021/07/31 14:19:15;;;;;;;5.03;2.85;;;;;;;23.47;60.51;100786.22;10463320;28;20067;-63
2021/07/31 14:24:17;;;;;;;5.50;2.97;;;;;;;21.88;65.99;100789.25;10462962;28;20409;-63
2021/07/31 14:29:19;;;;;;;3.20;2.85;;;;;;;20.47;69.40;100797.34;10462840;28;20131;-66
2021/07/31 14:34:24;;;;;;;3.92;3.15;;;;;;;20.64;69.79;100789.53;10462683;28;20045;-66
2021/07/31 14:39:27;;;;;;;4.68;3.00;;;;;;;20.59;67.70;100801.44;10462183;28;20462;-64
2021/07/31 14:44:30;;;;;;;4.78;3.45;;;;;;;19.83;71.07;100796.53;10462379;28;20061;-64
2021/07/31 14:49:32;;;;;;;4.15;2.80;;;;;;;21.22;66.46;100793.44;10460182;28;20052;-65
2021/07/31 14:54:34;;;;;;;4.30;2.38;;;;;;;21.48;66.97;100790.75;10462145;28;20060;-64
2021/07/31 14:59:37;;;;;;;2.03;1.70;;;;;;;24.26;60.91;100778.13;10461829;28;20055;-65
2021/07/31 15:04:43;;;;;;;3.78;1.70;;;;;;;23.51;57.91;100781.38;10461980;28;20044;-63
2021/07/31 15:09:46;;;;;;;5.75;2.33;;;;;;;21.50;64.79;100788.75;10461271;28;20045;-66
2021/07/31 15:14:48;;;;;;;3.63;2.70;;;;;;;21.28;66.10;100801.63;10460272;28;20052;-64
2021/07/31 15:19:51;;;;;;;4.80;2.40;;;;;;;20.53;68.13;100795.91;10460732;28;20480;-65
2021/07/31 15:24:53;;;;;;;3.63;2.90;;;;;;;22.33;63.58;100804.03;10461465;28;20053;-64
2021/07/31 15:29:55;;;;;;;4.80;3.17;;;;;;;22.50;63.04;100794.19;10460488;28;20045;-65
2021/07/31 15:35:02;;;;;;;4.43;2.67;;;;;;;23.07;60.95;100785.34;10460278;28;20511;-66
2021/07/31 15:40:04;;;;;;;5.40;3.15;;;;;;;23.55;59.41;100782.69;10460369;28;20128;-65
2021/07/31 15:45:07;;;;;;;4.65;2.67;;;;;;;22.94;58.29;100791.16;10460011;28;20056;-65
2021/07/31 15:50:10;;;;;;;7.30;2.53;;;;;;;22.72;58.08;100791.88;10459865;28;20044;-63
2021/07/31 15:55:13;;;;;;;6.68;2.78;;;;;;;22.17;61.15;100787.97;10458205;28;20526;-65
2021/07/31 16:00:15;;;;;;;4.15;2.38;;;;;;;22.41;59.56;100790.72;10459258;28;20048;-64
2021/07/31 16:05:17;;;;;;;2.55;1.73;;;;;;;22.11;61.70;100786.81;10459299;28;20127;-64
2021/07/31 16:10:20;;;;;;;3.65;2.28;;;;;;;21.70;60.32;100782.19;10458438;28;20051;-66
2021/07/31 16:15:22;;;;;;;2.55;2.20;;;;;;;21.46;60.85;100790.88;10458456;28;20508;-65
2021/07/31 16:20:24;;;;;;;3.30;2.33;;;;;;;21.69;61.10;100799.16;10458682;28;20053;-63
2021/07/31 16:25:27;;;;;;;6.72;3.60;;;;;;;20.99;60.10;100795.78;10458429;28;20057;-63
2021/07/31 16:30:29;;;;;;;3.92;2.78;;;;;;;20.38;63.08;100795.59;10458262;28;20048;-63
2021/07/31 16:35:32;;;;;;;2.53;2.33;;;;;;;20.68;62.50;100793.53;10458326;28;20045;-65
2021/07/31 16:40:34;;;;;;;3.33;1.70;;;;;;;21.36;61.57;100792.00;10456708;28;20056;-65
2021/07/31 16:45:36;;;;;;;5.03;2.53;;;;;;;21.13;62.11;100792.53;10457634;28;20057;-65
2021/07/31 16:50:39;;;;;;;4.47;2.55;;;;;;;21.15;60.53;100788.72;10457312;28;20045;-66
2021/07/31 16:55:42;;;;;;;3.70;2.60;;;;;;;21.09;61.08;100797.34;10457011;28;20049;-66
2021/07/31 17:00:44;;;;;;;5.15;2.10;;;;;;;21.19;61.34;100793.75;10456978;28;20056;-65
2021/07/31 17:05:47;;;;;;;5.00;2.25;;;;;;;20.97;58.15;100801.25;10457089;28;20075;-64
2021/07/31 17:10:50;;;;;;;3.90;2.40;;;;;;;21.01;60.42;100794.63;10456125;28;20056;-64
2021/07/31 17:15:52;;;;;;;1.77;1.67;;;;;;;21.20;60.27;100795.41;10457238;28;20045;-64
2021/07/31 17:20:54;;;;;;;2.00;1.40;;;;;;;20.88;60.30;100794.19;10456670;28;20061;-63
2021/07/31 17:25:56;;;;;;;1.73;1.63;;;;;;;21.00;59.91;100797.44;10455473;28;20057;-65
2021/07/31 17:30:59;;;;;;;2.53;1.70;;;;;;;20.88;60.23;100802.19;10456470;28;20045;-64
2021/07/31 17:36:07;;;;;;;3.90;1.48;;;;;;;20.79;61.50;100803.94;10456535;28;20053;-64
2021/07/31 17:41:09;;;;;;;3.08;1.92;;;;;;;20.46;60.66;100814.28;10456367;28;20064;-64
2021/07/31 17:46:11;;;;;;;2.42;1.83;;;;;;;20.37;61.08;100810.69;10456075;28;20057;-64
2021/07/31 17:51:14;;;;;;;2.35;1.85;;;;;;;20.28;61.40;100818.78;10456672;28;20072;-65
2021/07/31 17:56:16;;;;;;;2.72;1.67;;;;;;;20.03;62.40;100818.50;10455703;28;20405;-64
2021/07/31 18:01:18;;;;;;;1.83;1.40;;;;;;;20.10;62.92;100808.94;10455593;28;20048;-63
2021/07/31 18:06:21;;;;;;;4.55;1.67;;;;;;;19.73;63.02;100824.94;10455597;28;20055;-65
2021/07/31 18:11:23;;;;;;;3.72;1.77;;;;;;;19.69;63.33;100821.72;10456244;28;20047;-64
2021/07/31 18:16:25;;;;;;;1.60;1.50;;;;;;;19.70;64.57;100818.06;10455819;28;20053;-66
2021/07/31 18:21:28;;;;;;;2.58;1.45;;;;;;;19.47;64.18;100826.44;10455434;28;20053;-64
2021/07/31 18:26:30;;;;;;;1.55;1.42;;;;;;;19.25;65.61;100827.63;10462132;28;20053;-65
2021/07/31 18:31:33;;;;;;;2.15;1.73;;;;;;;18.99;67.99;100827.38;10462790;28;20396;-64
2021/07/31 18:36:35;;;;;;;1.67;1.58;;;;;;;19.17;65.60;100827.50;10462893;28;20120;-64
2021/07/31 18:41:38;;;;;;;3.13;1.55;;;;;;;18.77;68.42;100827.66;10462529;28;20057;-66
2021/07/31 18:46:40;;;;;;;2.85;1.83;;;;;;;18.47;68.79;100835.59;10462038;28;20493;-66
2021/07/31 18:51:43;;;;;;;3.22;1.65;;;;;;;17.88;71.59;100826.72;10462224;28;20060;-64
2021/07/31 18:56:45;;;;;;;1.98;1.20;;;;;;;17.90;73.06;100837.19;10461823;28;20049;-64
2021/07/31 19:01:47;;;;;;;1.95;1.42;;;;;;;17.73;73.20;100838.63;10461419;28;20055;-66
2021/07/31 19:06:50;;;;;;;2.05;1.40;;;;;;;17.32;74.51;100829.81;10461592;28;20114;-66
2021/07/31 19:11:52;;;;;;;4.20;1.52;;;;;;;17.22;74.92;100842.97;10462573;28;20049;-66
2021/07/31 19:16:55;;;;;;;2.25;1.52;;;;;;;17.19;74.05;100838.78;10461161;28;20053;-64
2021/07/31 19:21:57;;;;;;;1.90;1.50;;;;;;;16.96;75.90;100837.22;10460645;28;20044;-64
2021/07/31 19:26:59;;;;;;;4.53;1.40;;;;;;;16.92;75.11;100843.75;10461100;28;20052;-64
2021/07/31 19:32:02;;;;;;;2.53;1.80;;;;;;;16.59;76.82;100835.78;10460560;28;20045;-66
2021/07/31 19:37:04;;;;;;;4.30;1.75;;;;;;;16.31;77.31;100845.97;10459535;28;20063;-66
2021/07/31 19:42:06;;;;;;;3.13;2.17;;;;;;;16.47;77.22;100855.31;10458634;28;20056;-65
2021/07/31 19:47:09;;;;;;;2.95;1.60;;;;;;;16.48;76.85;100859.63;10459850;28;20049;-65
2021/07/31 19:52:11;;;;;;;2.80;1.30;;;;;;;16.24;78.03;100865.09;10460147;28;20045;-64
2021/07/31 19:57:17;;;;;;;2.92;1.48;;;;;;;16.18;77.58;100865.59;10458345;28;20049;-64
2021/07/31 20:02:19;;;;;;;2.28;1.67;;;;;;;16.06;79.34;100873.53;10459638;28;20045;-64
2021/07/31 20:07:22;;;;;;;2.25;1.25;;;;;;;15.88;79.18;100880.25;10459055;28;20049;-66
2021/07/31 20:12:24;;;;;;;1.90;1.80;;;;;;;15.63;80.71;100895.31;10458839;28;20045;-63
2021/07/31 20:17:26;;;;;;;4.32;1.58;;;;;;;15.72;80.00;100896.44;10458649;28;20045;-65
2021/07/31 20:22:29;;;;;;;3.03;2.03;;;;;;;15.49;80.92;100888.47;10458632;28;20056;-65
2021/07/31 20:27:31;;;;;;;2.40;1.63;;;;;;;15.53;80.56;100899.63;10458098;28;20052;-66
2021/07/31 20:32:34;;;;;;;3.05;1.75;;;;;;;15.32;81.33;100902.13;10456793;28;20068;-64
2021/07/31 20:37:36;;;;;;;2.95;1.92;;;;;;;15.24;81.42;100895.59;10457122;28;20136;-66
2021/07/31 20:42:39;;;;;;;1.52;1.42;;;;;;;15.32;81.37;100899.50;10457867;28;20059;-65
2021/07/31 20:47:41;;;;;;;3.47;2.15;;;;;;;15.19;81.69;100899.56;10456604;28;20049;-66
2021/07/31 20:52:44;;;;;;;1.67;1.55;;;;;;;15.15;80.76;100898.97;10457445;28;20041;-66
2021/07/31 20:57:46;;;;;;;1.90;1.80;;;;;;;14.93;82.18;100891.81;10457046;28;20481;-67
2021/07/31 21:02:49;;;;;;;3.17;2.05;;;;;;;15.08;81.99;100903.00;10456418;28;20041;-65
2021/07/31 21:07:51;;;;;;;2.40;2.20;;;;;;;15.16;81.17;100905.06;10457371;28;20081;-64
2021/07/31 21:12:54;;;;;;;3.67;2.92;;;;;;;15.14;80.78;100899.91;10457424;28;20051;-65
2021/07/31 21:17:56;;;;;;;4.10;2.95;;;;;;;15.14;81.11;100902.53;10456192;28;20049;-65
2021/07/31 21:22:58;;;;;;;5.25;4.20;;;;;;;15.25;79.98;100899.09;10456963;28;20049;-65
2021/07/31 21:28:01;;;;;;;7.68;3.50;;;;;;;15.32;80.60;100897.69;10456717;28;20049;-66
2021/07/31 21:33:03;;;;;;;5.53;3.70;;;;;;;14.90;82.15;100894.66;10456454;28;20048;-64
2021/07/31 21:38:05;;;;;;;5.65;4.53;;;;;;;14.99;82.42;100896.59;10456496;28;20051;-64
2021/07/31 21:43:08;;;;;;;5.05;4.55;;;;;;;15.01;82.59;100892.09;10456532;28;20072;-64
2021/07/31 21:48:10;;;;;;;5.47;4.85;;;;;;;15.10;81.26;100900.25;10456225;28;20064;-65
2021/07/31 21:53:12;;;;;;;6.20;4.72;;;;;;;15.05;81.67;100893.53;10456175;28;20053;-66
2021/07/31 21:58:15;;;;;;;4.85;4.45;;;;;;;14.94;81.64;100898.75;10459276;28;20401;-65
2021/07/31 22:03:17;;;;;;;9.68;5.80;;;;;;;14.96;81.67;100896.00;10463343;28;20052;-64
2021/07/31 22:08:21;;;;;;;5.85;5.03;;;;;;;14.71;83.42;100891.69;10463618;28;20052;-66
2021/07/31 22:13:23;;;;;;;8.15;5.28;;;;;;;14.80;82.88;100897.13;10463102;28;20044;-65
2021/07/31 22:18:26;;;;;;;6.75;5.32;;;;;;;14.59;83.50;100893.44;10463473;28;20049;-64
2021/07/31 22:23:28;;;;;;;7.53;5.72;;;;;;;14.72;83.53;100894.22;10464058;28;20045;-64
2021/07/31 22:28:30;;;;;;;5.80;5.15;;;;;;;14.56;83.86;100885.72;10462969;28;20048;-65
2021/07/31 22:33:33;;;;;;;8.40;6.38;;;;;;;14.49;84.30;100883.53;10462652;28;20052;-65
2021/07/31 22:38:35;;;;;;;8.38;5.97;;;;;;;14.48;83.52;100879.22;10461161;28;20052;-66
2021/07/31 22:43:40;;;;;;;8.68;5.97;;;;;;;14.48;83.61;100871.31;10462912;28;20049;-67
2021/07/31 22:48:43;;;;;;;7.40;5.35;;;;;;;14.44;83.99;100869.88;10462804;28;20056;-64
2021/07/31 22:53:45;;;;;;;8.90;6.82;;;;;;;14.46;84.20;100872.41;10461759;28;20409;-66
2021/07/31 22:58:47;;;;;;;8.68;7.15;;;;;;;14.70;83.63;100867.16;10461792;28;20045;-65
2021/07/31 23:03:50;;;;;;;10.90;7.40;;;;;;;14.32;84.62;100865.47;10461397;28;20531;-66
2021/07/31 23:08:52;;;;;;;10.77;6.78;;;;;;;14.41;84.92;100867.44;10460533;28;20049;-69
2021/07/31 23:13:54;;;;;;;11.82;7.55;;;;;;;14.26;85.14;100868.56;10461955;28;20049;-67